createdAt,value
2023-03-11T00:13:49.949Z,99173.53
2023-03-11T00:28:51.781Z,99150.09
2023-03-11T00:43:53.646Z,99128.94
2023-03-11T00:58:55.771Z,99120.78
2023-03-11T01:13:58.162Z,99099.59
2023-03-11T01:28:59.975Z,99094.38
2023-03-11T01:44:02.585Z,99087.66
2023-03-11T01:59:06.657Z,99071.63
2023-03-11T02:14:09.517Z,99075.50
2023-03-11T02:29:18.185Z,99071.97
2023-03-11T02:44:20.142Z,99046.44
2023-03-11T02:59:22.521Z,99057.94
2023-03-11T03:14:24.387Z,99039.31
2023-03-11T03:29:26.187Z,99033.66
2023-03-11T03:44:28.156Z,99029.63
2023-03-11T03:59:30.481Z,98996.75
2023-03-11T04:14:32.331Z,98982.84
2023-03-11T04:29:35.006Z,98994.75
2023-03-11T04:44:36.912Z,98999.28
2023-03-11T04:59:39.046Z,99014.88
2023-03-11T05:14:41.037Z,98998.34
2023-03-11T05:29:43.860Z,99002.66
2023-03-11T05:44:45.732Z,98992.03
2023-03-11T05:59:47.907Z,99004.16
2023-03-11T06:14:49.727Z,98982.72
2023-03-11T06:29:54.935Z,98998.13
2023-03-11T06:44:57.016Z,98960.91
2023-03-11T07:00:00.144Z,98936.19
2023-03-11T07:15:06.578Z,98913.75
2023-03-11T07:30:09.292Z,98916.28
2023-03-11T07:45:11.456Z,98880.50
2023-03-11T08:00:14.194Z,98876.38
2023-03-11T08:15:16.034Z,98865.19
2023-03-11T08:30:18.233Z,98845.66
2023-03-11T08:45:20.071Z,98819.81
2023-03-11T09:00:22.970Z,98820.53
2023-03-11T09:15:25.208Z,98804.06
2023-03-11T09:30:27.429Z,98809.72
2023-03-11T09:45:32.394Z,98762.59
2023-03-11T10:00:35.840Z,98736.81
2023-03-11T10:16:05.054Z,98708.06
2023-03-11T10:31:21.895Z,98669.66
2023-03-11T10:46:27.260Z,98650.44
2023-03-11T11:01:30.695Z,98623.44
2023-03-11T11:16:36.740Z,98613.81
2023-03-11T11:31:44.079Z,98600.19
2023-03-11T11:47:13.376Z,98612.47
2023-03-11T12:02:33.897Z,98581.59
2023-03-11T12:17:40.473Z,98577.56
2023-03-11T12:32:50.153Z,98565.63
2023-03-11T12:48:29.836Z,98564.31
2023-03-11T13:03:39.674Z,98564.38
2023-03-11T13:18:43.947Z,98551.03
2023-03-11T13:34:02.683Z,98509.16
2023-03-11T13:49:33.881Z,98514.78
2023-03-11T14:04:37.988Z,98480.66
2023-03-11T14:19:39.822Z,98462.59
2023-03-11T14:34:41.798Z,98442.03
2023-03-11T14:49:44.257Z,98445.81
2023-03-11T15:04:46.939Z,98416.19
2023-03-11T15:19:49.567Z,98433.22
2023-03-11T15:35:07.656Z,98435.38
2023-03-11T15:50:24.439Z,98438.47
2023-03-11T16:05:28.028Z,98436.66
2023-03-11T16:20:36.681Z,98462.56
2023-03-11T16:35:38.758Z,98424.16
2023-03-11T16:50:41.803Z,98394.19
2023-03-11T17:05:44.140Z,98389.41
2023-03-11T17:20:46.001Z,98368.03
2023-03-11T17:35:47.865Z,98350.00
2023-03-11T17:50:50.001Z,98328.91
2023-03-11T18:06:01.288Z,98309.19
2023-03-11T18:21:06.156Z,98285.88
2023-03-11T18:36:19.258Z,98273.09
2023-03-11T18:51:22.583Z,98287.38
2023-03-11T19:06:27.665Z,98276.69
2023-03-11T19:21:29.600Z,98231.31
2023-03-11T19:36:31.768Z,98240.44
2023-03-11T19:51:48.530Z,98262.06
2023-03-11T20:06:51.500Z,98241.63
2023-03-11T20:21:53.337Z,98224.16
2023-03-11T20:36:55.205Z,98206.56
2023-03-11T20:51:57.105Z,98195.97
2023-03-11T21:06:58.992Z,98202.56
2023-03-11T21:22:00.920Z,98182.63
2023-03-11T21:37:02.855Z,98189.91
2023-03-11T21:52:06.555Z,98165.34
2023-03-11T22:07:09.127Z,98134.09
2023-03-11T22:22:11.028Z,98094.88
2023-03-11T22:37:12.899Z,98083.53
2023-03-11T22:52:14.766Z,98051.03
2023-03-11T23:07:16.678Z,98025.09
2023-03-11T23:22:18.706Z,98004.16
2023-03-11T23:37:20.634Z,97974.34
2023-03-11T23:52:23.138Z,97944.97
